createdAt,value
2023-03-05T00:00:18.362Z,55.10
2023-03-05T00:01:51.490Z,55.10
2023-03-05T00:03:24.633Z,54.90
2023-03-05T00:04:57.804Z,54.40
2023-03-05T00:06:32.805Z,54.10
2023-03-05T00:08:25.873Z,54.10
2023-03-05T00:10:02.510Z,53.80
2023-03-05T00:11:36.043Z,54.00
2023-03-05T00:13:08.439Z,54.10
2023-03-05T00:14:41.778Z,54.20
2023-03-05T00:16:17.263Z,54.30
2023-03-05T00:17:50.674Z,54.50
2023-03-05T00:19:23.807Z,54.60
2023-03-05T00:20:56.201Z,54.60
2023-03-05T00:22:29.334Z,54.60
2023-03-05T00:24:05.413Z,54.50
2023-03-05T00:25:40.121Z,54.40
2023-03-05T00:27:13.241Z,54.30
2023-03-05T00:28:49.913Z,54.30
2023-03-05T00:30:23.324Z,54.50
2023-03-05T00:31:55.599Z,54.60
2023-03-05T00:33:29.378Z,54.80
2023-03-05T00:35:02.790Z,54.90
2023-03-05T00:36:40.145Z,55.50
2023-03-05T00:38:14.361Z,54.80
2023-03-05T00:39:47.490Z,54.70
2023-03-05T00:41:22.320Z,54.80
2023-03-05T00:42:55.804Z,54.70
2023-03-05T00:44:28.917Z,54.80
2023-03-05T00:46:01.317Z,55.00
2023-03-05T00:47:34.563Z,55.00
2023-03-05T00:49:08.745Z,54.90
2023-03-05T00:50:41.997Z,54.90
2023-03-05T00:52:15.089Z,55.00
2023-03-05T00:53:49.046Z,55.00
2023-03-05T00:55:22.420Z,54.90
2023-03-05T00:56:56.901Z,54.80
2023-03-05T00:58:29.777Z,54.50
2023-03-05T01:00:03.419Z,54.40
2023-03-05T01:01:36.654Z,54.40
2023-03-05T01:03:10.624Z,54.40
2023-03-05T01:04:46.998Z,54.40
2023-03-05T01:06:20.595Z,54.50
2023-03-05T01:07:54.536Z,54.70
2023-03-05T01:09:27.828Z,54.90
2023-03-05T01:11:00.184Z,54.90
2023-03-05T01:12:34.704Z,55.00
2023-03-05T01:14:08.097Z,55.10
2023-03-05T01:15:40.361Z,55.10
2023-03-05T01:17:13.802Z,55.00
2023-03-05T01:18:47.552Z,54.90
2023-03-05T01:20:23.387Z,54.90
2023-03-05T01:21:56.867Z,54.90
2023-03-05T01:23:30.180Z,54.80
2023-03-05T01:25:03.555Z,54.90
2023-03-05T01:26:37.292Z,54.90
2023-03-05T01:28:12.324Z,54.90
2023-03-05T01:29:45.412Z,54.90
2023-03-05T01:31:18.507Z,54.90
2023-03-05T01:32:50.721Z,54.90
2023-03-05T01:34:23.851Z,55.00
2023-03-05T01:35:57.105Z,55.20
2023-03-05T01:37:30.363Z,55.30
2023-03-05T01:39:03.885Z,55.30
2023-03-05T01:40:37.375Z,55.40
2023-03-05T01:42:10.677Z,55.40
2023-03-05T01:43:47.277Z,55.50
2023-03-05T01:45:19.491Z,55.70
2023-03-05T01:46:52.639Z,55.70
2023-03-05T01:48:25.385Z,55.70
2023-03-05T01:49:59.593Z,55.60
2023-03-05T01:51:38.794Z,55.60
2023-03-05T01:53:11.998Z,55.70
2023-03-05T01:54:50.929Z,55.80
2023-03-05T01:56:23.231Z,55.90
2023-03-05T01:58:03.009Z,55.90
2023-03-05T01:59:39.414Z,56.10
2023-03-05T02:01:13.346Z,56.10
2023-03-05T02:02:51.118Z,56.10
2023-03-05T02:04:33.455Z,56.20
2023-03-05T02:06:06.106Z,56.30
2023-03-05T02:07:42.985Z,56.30
2023-03-05T02:09:16.758Z,56.40
2023-03-05T02:10:53.949Z,56.40
2023-03-05T02:12:30.538Z,56.50
2023-03-05T02:14:05.305Z,56.60
2023-03-05T02:15:41.941Z,56.60
2023-03-05T02:17:17.442Z,56.70
2023-03-05T02:18:50.159Z,56.70
2023-03-05T02:20:27.688Z,56.70
2023-03-05T02:22:02.420Z,57.20
2023-03-05T02:23:39.593Z,56.80
2023-03-05T02:25:16.973Z,56.90
2023-03-05T02:26:50.470Z,56.90
2023-03-05T02:28:31.224Z,57.00
2023-03-05T02:30:04.862Z,57.10
2023-03-05T02:31:38.950Z,57.10
2023-03-05T02:33:13.884Z,56.80
2023-03-05T02:34:46.980Z,56.80
2023-03-05T02:36:20.471Z,56.80
2023-03-05T02:37:54.969Z,56.90
2023-03-05T02:39:28.412Z,56.90
2023-03-05T02:41:01.110Z,56.90
2023-03-05T02:42:35.539Z,57.00
2023-03-05T02:44:09.609Z,57.10
2023-03-05T02:45:43.229Z,57.00
2023-03-05T02:47:16.581Z,57.00
2023-03-05T02:48:49.903Z,57.10
2023-03-05T02:50:23.849Z,57.20
2023-03-05T02:51:57.156Z,57.20
2023-03-05T02:53:30.896Z,57.10
2023-03-05T02:55:04.841Z,57.10
2023-03-05T02:56:39.744Z,57.10
2023-03-05T02:58:12.916Z,57.10
2023-03-05T02:59:46.501Z,57.10
2023-03-05T03:01:20.350Z,57.10
2023-03-05T03:02:54.041Z,57.10
2023-03-05T03:04:27.492Z,57.10
2023-03-05T03:06:00.623Z,57.70
2023-03-05T03:07:34.340Z,57.00
2023-03-05T03:09:09.025Z,57.00
2023-03-05T03:10:41.598Z,57.00
2023-03-05T03:12:15.417Z,57.10
2023-03-05T03:13:49.171Z,57.10
2023-03-05T03:15:22.611Z,57.10
2023-03-05T03:16:55.763Z,57.10
2023-03-05T03:18:27.896Z,57.10
2023-03-05T03:20:03.308Z,57.10
2023-03-05T03:21:36.409Z,57.10
2023-03-05T03:23:10.004Z,57.00
2023-03-05T03:24:45.238Z,57.10
2023-03-05T03:26:19.204Z,57.10
2023-03-05T03:27:52.509Z,57.20
2023-03-05T03:29:25.749Z,57.10
2023-03-05T03:30:58.927Z,57.10
2023-03-05T03:32:33.580Z,57.00
2023-03-05T03:34:17.193Z,56.90
2023-03-05T03:35:50.518Z,56.80
2023-03-05T03:37:23.845Z,56.60
2023-03-05T03:38:56.986Z,56.60
2023-03-05T03:40:32.953Z,56.50
2023-03-05T03:42:06.855Z,56.40
2023-03-05T03:43:40.193Z,56.40
2023-03-05T03:45:14.510Z,56.30
2023-03-05T03:46:49.564Z,56.30
2023-03-05T03:48:22.730Z,56.30
2023-03-05T03:49:56.104Z,56.20
2023-03-05T03:51:29.202Z,56.20
2023-03-05T03:53:02.647Z,56.30
2023-03-05T03:54:36.607Z,56.40
2023-03-05T03:56:11.279Z,56.50
2023-03-05T03:57:44.467Z,56.40
2023-03-05T03:59:16.715Z,56.60
2023-03-05T04:00:50.017Z,56.60
2023-03-05T04:02:23.688Z,56.60
2023-03-05T04:03:56.946Z,56.70
2023-03-05T04:05:29.111Z,56.80
2023-03-05T04:07:02.925Z,56.90
2023-03-05T04:08:36.254Z,57.00
2023-03-05T04:10:11.422Z,57.00
2023-03-05T04:11:46.074Z,57.10
2023-03-05T04:13:18.166Z,57.20
2023-03-05T04:14:51.789Z,57.20
2023-03-05T04:16:25.353Z,57.20
2023-03-05T04:17:58.620Z,57.20
2023-03-05T04:19:31.993Z,57.20
2023-03-05T04:21:06.017Z,57.20
2023-03-05T04:22:39.352Z,57.20
2023-03-05T04:24:12.730Z,57.20
2023-03-05T04:25:46.105Z,57.20
2023-03-05T04:27:20.458Z,57.20
2023-03-05T04:28:53.568Z,57.40
2023-03-05T04:30:26.680Z,57.50
2023-03-05T04:31:59.860Z,57.60
2023-03-05T04:33:33.750Z,57.60
2023-03-05T04:35:06.398Z,57.70
2023-03-05T04:36:39.436Z,57.80
2023-03-05T04:38:13.251Z,57.80
2023-03-05T04:39:45.385Z,57.70
2023-03-05T04:41:18.583Z,57.70
2023-03-05T04:42:53.438Z,57.80
2023-03-05T04:44:25.982Z,57.80
2023-03-05T04:45:59.084Z,57.80
2023-03-05T04:47:32.231Z,57.80
2023-03-05T04:49:05.581Z,57.70
2023-03-05T04:50:38.912Z,57.70
2023-03-05T04:52:15.251Z,57.70
2023-03-05T04:53:48.608Z,57.70
2023-03-05T04:55:20.755Z,57.70
2023-03-05T04:56:54.081Z,57.70
2023-03-05T04:58:29.719Z,57.70
2023-03-05T05:00:01.949Z,57.70
2023-03-05T05:01:35.370Z,57.70
2023-03-05T05:03:08.537Z,57.70
2023-03-05T05:04:44.958Z,57.70
2023-03-05T05:06:18.154Z,57.70
2023-03-05T05:07:54.275Z,57.70
2023-03-05T05:09:27.834Z,57.70
2023-03-05T05:11:04.024Z,57.60
2023-03-05T05:12:37.921Z,57.70
2023-03-05T05:14:11.416Z,57.60
2023-03-05T05:15:44.590Z,57.70
2023-03-05T05:17:17.724Z,57.70
2023-03-05T05:18:50.845Z,57.90
2023-03-05T05:20:23.926Z,58.00
2023-03-05T05:21:57.050Z,58.10
2023-03-05T05:23:30.207Z,58.10
2023-03-05T05:25:03.257Z,58.10
2023-03-05T05:26:36.588Z,58.20
2023-03-05T05:28:10.370Z,58.20
2023-03-05T05:29:46.409Z,58.30
2023-03-05T05:31:19.416Z,58.20
2023-03-05T05:32:52.552Z,58.30
2023-03-05T05:34:26.046Z,58.30
2023-03-05T05:35:58.178Z,58.40
2023-03-05T05:37:31.768Z,58.40
2023-03-05T05:39:05.433Z,58.40
2023-03-05T05:40:38.667Z,58.40
2023-03-05T05:42:11.087Z,58.50
2023-03-05T05:43:44.732Z,58.50
2023-03-05T05:45:19.466Z,58.60
2023-03-05T05:46:52.844Z,58.50
2023-03-05T05:48:25.966Z,58.50
2023-03-05T05:49:59.387Z,58.60
2023-03-05T05:51:32.494Z,58.60
2023-03-05T05:53:05.576Z,58.70
2023-03-05T05:54:38.794Z,58.70
2023-03-05T05:56:14.596Z,58.70
2023-03-05T05:57:47.778Z,58.70
2023-03-05T05:59:21.067Z,58.70
2023-03-05T06:00:55.683Z,58.70
2023-03-05T06:02:28.810Z,58.80
2023-03-05T06:04:02.068Z,58.80
2023-03-05T06:05:35.831Z,58.80
2023-03-05T06:07:09.232Z,58.80
2023-03-05T06:08:43.185Z,58.80
2023-03-05T06:10:16.519Z,58.90
2023-03-05T06:11:48.619Z,58.80
2023-03-05T06:13:21.954Z,58.80
2023-03-05T06:14:55.140Z,58.70
2023-03-05T06:16:29.613Z,58.70
2023-03-05T06:18:03.244Z,58.80
2023-03-05T06:19:36.369Z,58.80
2023-03-05T06:21:12.877Z,58.80
2023-03-05T06:22:46.030Z,58.80
2023-03-05T06:24:20.367Z,58.80
2023-03-05T06:25:53.257Z,59.00
2023-03-05T06:27:26.466Z,59.00
2023-03-05T06:28:59.988Z,59.00
2023-03-05T06:30:33.420Z,59.00
2023-03-05T06:32:08.593Z,59.00
2023-03-05T06:33:42.886Z,59.60
2023-03-05T06:35:15.986Z,59.00
2023-03-05T06:36:49.420Z,59.00
2023-03-05T06:38:22.540Z,59.00
2023-03-05T06:39:56.002Z,59.10
2023-03-05T06:41:31.667Z,59.00
2023-03-05T06:43:04.761Z,59.10
2023-03-05T06:44:40.204Z,59.10
2023-03-05T06:46:15.553Z,59.10
2023-03-05T06:47:49.943Z,59.20
2023-03-05T06:49:23.102Z,59.20
2023-03-05T06:50:56.181Z,59.10
2023-03-05T06:52:29.349Z,59.00
2023-03-05T06:54:06.875Z,59.00
2023-03-05T06:55:40.497Z,58.90
2023-03-05T06:57:13.727Z,58.90
2023-03-05T06:58:48.822Z,58.90
2023-03-05T07:00:24.353Z,58.90
2023-03-05T07:01:57.783Z,59.10
2023-03-05T07:03:32.164Z,58.80
2023-03-05T07:05:06.355Z,58.90
2023-03-05T07:06:42.032Z,58.90
2023-03-05T07:08:15.401Z,59.00
2023-03-05T07:09:50.225Z,59.00
2023-03-05T07:11:23.844Z,59.00
2023-03-05T07:12:57.053Z,59.20
2023-03-05T07:14:30.138Z,59.00
2023-03-05T07:16:07.690Z,59.00
2023-03-05T07:17:40.784Z,59.10
2023-03-05T07:19:15.363Z,59.10
2023-03-05T07:20:48.923Z,59.20
2023-03-05T07:22:22.013Z,59.20
2023-03-05T07:23:56.723Z,59.30
2023-03-05T07:25:28.906Z,59.40
2023-03-05T07:27:02.077Z,59.30
2023-03-05T07:28:35.974Z,59.30
2023-03-05T07:30:11.495Z,59.40
2023-03-05T07:31:44.581Z,59.50
2023-03-05T07:33:17.827Z,59.50
2023-03-05T07:34:52.230Z,59.60
2023-03-05T07:36:25.544Z,59.80
2023-03-05T07:37:58.681Z,59.90
2023-03-05T07:39:31.833Z,60.00
2023-03-05T07:41:06.940Z,60.00
2023-03-05T07:42:40.329Z,60.00
2023-03-05T07:44:20.186Z,60.00
2023-03-05T07:45:53.360Z,60.00
2023-03-05T07:47:26.542Z,60.00
2023-03-05T07:49:00.259Z,60.00
2023-03-05T07:50:34.639Z,60.00
2023-03-05T07:52:08.257Z,60.10
2023-03-05T07:53:41.396Z,60.00
2023-03-05T07:55:14.690Z,60.00
2023-03-05T07:56:48.593Z,60.00
2023-03-05T07:58:22.074Z,60.00
2023-03-05T07:59:55.499Z,60.20
2023-03-05T08:01:29.801Z,60.30
2023-03-05T08:03:02.895Z,60.40
2023-03-05T08:04:36.477Z,61.20
2023-03-05T08:06:13.212Z,60.60
2023-03-05T08:07:46.508Z,60.60
2023-03-05T08:09:20.323Z,60.60
2023-03-05T08:10:53.438Z,60.40
2023-03-05T08:12:26.871Z,60.40
2023-03-05T08:14:00.878Z,60.50
2023-03-05T08:15:34.012Z,60.50
2023-03-05T08:17:08.525Z,60.50
2023-03-05T08:18:42.115Z,60.50
2023-03-05T08:20:15.357Z,60.40
2023-03-05T08:21:50.184Z,60.50
2023-03-05T08:23:23.317Z,60.60
2023-03-05T08:24:56.607Z,60.70
2023-03-05T08:26:32.658Z,60.60
2023-03-05T08:28:06.334Z,60.50
2023-03-05T08:29:39.610Z,60.50
2023-03-05T08:31:14.022Z,60.30
2023-03-05T08:32:49.148Z,60.20
2023-03-05T08:34:22.457Z,60.20
2023-03-05T08:35:55.712Z,60.20
2023-03-05T08:37:30.432Z,60.20
2023-03-05T08:39:03.713Z,60.20
2023-03-05T08:40:36.880Z,60.10
2023-03-05T08:42:10.099Z,60.00
2023-03-05T08:43:44.084Z,59.90
2023-03-05T08:45:17.333Z,59.80
2023-03-05T08:46:50.453Z,59.70
2023-03-05T08:48:23.717Z,59.70
2023-03-05T08:49:57.511Z,59.80
2023-03-05T08:51:30.741Z,59.70
2023-03-05T08:53:05.442Z,60.50
2023-03-05T08:54:39.030Z,59.90
2023-03-05T08:56:12.740Z,59.90
2023-03-05T08:57:46.137Z,59.90
2023-03-05T08:59:19.552Z,59.80
2023-03-05T09:00:53.190Z,60.70
2023-03-05T09:02:26.356Z,59.90
2023-03-05T09:04:00.781Z,60.00
2023-03-05T09:05:33.817Z,60.20
2023-03-05T09:07:07.708Z,60.30
2023-03-05T09:08:43.065Z,60.00
2023-03-05T09:10:18.516Z,60.00
2023-03-05T09:11:52.732Z,59.80
2023-03-05T09:13:26.097Z,59.70
2023-03-05T09:14:59.289Z,59.60
2023-03-05T09:16:32.972Z,59.50
2023-03-05T09:18:08.905Z,59.40
2023-03-05T09:19:42.191Z,59.50
2023-03-05T09:21:18.681Z,59.50
2023-03-05T09:22:52.187Z,59.60
2023-03-05T09:24:26.885Z,59.60
2023-03-05T09:26:00.217Z,59.70
2023-03-05T09:27:34.828Z,59.70
2023-03-05T09:29:08.759Z,59.80
2023-03-05T09:30:42.228Z,59.70
2023-03-05T09:32:15.359Z,59.80
2023-03-05T09:33:50.297Z,59.80
2023-03-05T09:35:23.976Z,59.80
2023-03-05T09:36:57.149Z,59.70
2023-03-05T09:38:30.859Z,59.70
2023-03-05T09:40:06.343Z,59.60
2023-03-05T09:42:23.279Z,59.70
2023-03-05T09:44:12.710Z,59.80
2023-03-05T09:46:00.760Z,59.90
2023-03-05T09:47:53.766Z,60.10
2023-03-05T09:49:44.621Z,60.40
2023-03-05T09:51:25.577Z,60.50
2023-03-05T09:53:07.014Z,60.40
2023-03-05T09:54:44.128Z,60.30
2023-03-05T09:56:25.877Z,60.40
2023-03-05T09:58:06.883Z,60.40
2023-03-05T09:59:49.306Z,60.40
2023-03-05T10:01:29.135Z,60.40
2023-03-05T10:03:11.638Z,60.40
2023-03-05T10:04:49.941Z,60.40
2023-03-05T10:06:27.322Z,60.40
2023-03-05T10:08:05.974Z,60.40
2023-03-05T10:09:47.457Z,60.50
2023-03-05T10:11:44.724Z,60.60
2023-03-05T10:13:25.349Z,60.70
2023-03-05T10:15:00.716Z,60.70
2023-03-05T10:16:57.897Z,60.50
2023-03-05T10:18:41.126Z,60.50
2023-03-05T10:20:34.109Z,60.30
2023-03-05T10:22:20.004Z,60.30
2023-03-05T10:24:04.389Z,60.40
2023-03-05T10:25:59.248Z,60.30
2023-03-05T10:27:51.218Z,60.50
2023-03-05T10:30:01.553Z,60.50
2023-03-05T10:31:51.170Z,60.60
2023-03-05T10:33:35.784Z,60.50
2023-03-05T10:35:25.762Z,60.50
2023-03-05T10:37:17.863Z,60.60
2023-03-05T10:39:42.993Z,60.70
2023-03-05T10:41:30.097Z,60.80
2023-03-05T10:43:20.468Z,60.90
2023-03-05T10:44:57.168Z,61.00
2023-03-05T10:46:36.460Z,61.20
2023-03-05T10:48:28.464Z,61.30
2023-03-05T10:50:01.848Z,61.30
2023-03-05T10:51:41.261Z,61.20
2023-03-05T10:53:24.419Z,61.20
2023-03-05T10:54:57.544Z,61.30
2023-03-05T10:56:31.758Z,61.10
2023-03-05T10:58:13.772Z,60.90
2023-03-05T10:59:52.314Z,60.60
2023-03-05T11:01:28.969Z,60.60
2023-03-05T11:03:05.572Z,60.50
2023-03-05T11:04:41.528Z,60.40
2023-03-05T11:06:15.904Z,60.50
2023-03-05T11:07:49.049Z,60.60
2023-03-05T11:09:29.040Z,60.70
2023-03-05T11:11:18.942Z,61.30
2023-03-05T11:12:54.226Z,61.00
2023-03-05T11:14:33.449Z,60.90
2023-03-05T11:16:15.468Z,61.20
2023-03-05T11:18:04.130Z,61.20
2023-03-05T11:19:37.622Z,61.40
2023-03-05T11:21:19.500Z,61.50
2023-03-05T11:23:11.783Z,61.50
2023-03-05T11:24:46.798Z,61.50
2023-03-05T11:26:23.495Z,61.70
2023-03-05T11:27:59.815Z,62.00
2023-03-05T11:29:35.947Z,61.90
2023-03-05T11:31:24.203Z,61.90
2023-03-05T11:33:19.307Z,62.00
2023-03-05T11:34:53.819Z,62.10
2023-03-05T11:36:31.288Z,62.00
2023-03-05T11:38:07.775Z,62.40
2023-03-05T11:39:41.242Z,62.60
2023-03-05T11:41:15.067Z,62.50
2023-03-05T11:42:56.428Z,62.50
2023-03-05T11:44:38.988Z,62.60
2023-03-05T11:46:14.048Z,62.50
2023-03-05T11:47:50.320Z,62.70
2023-03-05T11:49:28.821Z,63.00
2023-03-05T11:51:08.903Z,62.60
2023-03-05T11:52:49.553Z,62.40
2023-03-05T11:54:29.353Z,62.30
2023-03-05T11:56:16.484Z,62.60
2023-03-05T11:58:18.699Z,63.10
2023-03-05T11:59:57.154Z,62.20
2023-03-05T12:01:35.131Z,62.00
2023-03-05T12:03:15.500Z,61.60
2023-03-05T12:04:50.168Z,61.40
2023-03-05T12:06:34.343Z,61.20
2023-03-05T12:08:14.506Z,61.40
2023-03-05T12:09:51.874Z,61.20
2023-03-05T12:11:29.455Z,61.10
2023-03-05T12:13:15.881Z,60.70
2023-03-05T12:15:02.365Z,60.50
2023-03-05T12:16:41.864Z,60.60
2023-03-05T12:18:39.064Z,60.70
2023-03-05T12:20:19.438Z,60.90
2023-03-05T12:21:54.305Z,60.70
2023-03-05T12:23:28.288Z,60.40
2023-03-05T12:25:28.881Z,61.10
2023-03-05T12:27:15.841Z,60.20
2023-03-05T12:28:57.702Z,60.20
2023-03-05T12:31:02.228Z,60.20
2023-03-05T12:33:00.691Z,60.40
2023-03-05T12:34:57.161Z,60.40
2023-03-05T12:36:39.835Z,60.20
2023-03-05T12:38:33.160Z,60.20
2023-03-05T12:40:22.686Z,60.20
2023-03-05T12:41:56.551Z,60.40
2023-03-05T12:43:32.603Z,60.50
2023-03-05T12:45:33.574Z,60.60
2023-03-05T12:47:23.891Z,60.50
2023-03-05T12:48:57.065Z,60.40
2023-03-05T12:50:51.429Z,60.60
2023-03-05T12:52:30.550Z,61.10
2023-03-05T12:54:31.892Z,61.20
2023-03-05T12:56:18.759Z,61.40
2023-03-05T12:57:59.363Z,61.30
2023-03-05T12:59:44.519Z,61.30
2023-03-05T13:01:46.710Z,61.20
2023-03-05T13:03:27.567Z,61.30
2023-03-05T13:05:07.419Z,61.30
2023-03-05T13:06:41.366Z,61.20
2023-03-05T13:08:22.468Z,61.10
2023-03-05T13:09:57.728Z,61.20
2023-03-05T13:11:34.981Z,61.30
2023-03-05T13:13:16.009Z,61.30
2023-03-05T13:14:58.348Z,61.30
2023-03-05T13:16:40.312Z,61.30
2023-03-05T13:18:22.244Z,62.10
2023-03-05T13:19:54.727Z,61.20
2023-03-05T13:21:31.254Z,60.90
2023-03-05T13:23:18.107Z,60.60
2023-03-05T13:25:04.659Z,60.40
2023-03-05T13:26:39.490Z,60.20
2023-03-05T13:28:16.382Z,60.00
2023-03-05T13:29:53.565Z,59.90
2023-03-05T13:31:26.726Z,59.80
2023-03-05T13:33:03.900Z,59.50
2023-03-05T13:34:47.368Z,59.20
2023-03-05T13:36:22.622Z,58.80
2023-03-05T13:37:56.001Z,59.10
2023-03-05T13:39:34.505Z,58.90
2023-03-05T13:41:20.678Z,59.10
2023-03-05T13:42:56.559Z,59.30
2023-03-05T13:44:31.180Z,59.10
2023-03-05T13:46:04.396Z,59.10
2023-03-05T13:47:37.613Z,58.90
2023-03-05T13:49:28.788Z,59.00
2023-03-05T13:51:06.814Z,58.50
2023-03-05T13:52:40.328Z,58.20
2023-03-05T13:54:18.811Z,58.10
2023-03-05T13:55:55.319Z,58.20
2023-03-05T13:57:41.074Z,58.30
2023-03-05T13:59:20.456Z,58.30
2023-03-05T14:01:06.335Z,58.10
2023-03-05T14:02:44.762Z,58.40
2023-03-05T14:04:23.732Z,57.90
2023-03-05T14:05:57.128Z,57.70
2023-03-05T14:07:38.456Z,58.30
2023-03-05T14:09:22.742Z,57.60
2023-03-05T14:11:15.227Z,57.40
2023-03-05T14:12:52.514Z,57.30
2023-03-05T14:14:28.307Z,56.30
2023-03-05T14:16:06.694Z,57.10
2023-03-05T14:17:42.937Z,57.10
2023-03-05T14:19:36.021Z,57.60
2023-03-05T14:21:12.316Z,56.80
2023-03-05T14:22:49.402Z,57.00
2023-03-05T14:24:28.216Z,57.00
2023-03-05T14:26:29.764Z,57.10
2023-03-05T14:28:05.364Z,57.00
2023-03-05T14:29:38.966Z,57.00
2023-03-05T14:31:17.978Z,56.80
2023-03-05T14:32:54.059Z,56.90
2023-03-05T14:34:31.800Z,57.00
2023-03-05T14:36:06.886Z,56.70
2023-03-05T14:37:44.941Z,56.70
2023-03-05T14:39:36.786Z,56.90
2023-03-05T14:41:39.992Z,56.90
2023-03-05T14:43:13.349Z,56.70
2023-03-05T14:44:46.678Z,56.90
2023-03-05T14:46:20.001Z,56.90
2023-03-05T14:47:57.374Z,57.00
2023-03-05T14:49:31.791Z,57.10
2023-03-05T14:51:05.880Z,57.10
2023-03-05T14:52:39.093Z,57.00
2023-03-05T14:54:21.756Z,56.70
2023-03-05T14:55:57.701Z,56.70
2023-03-05T14:57:33.673Z,56.70
2023-03-05T14:59:06.747Z,56.70
2023-03-05T15:00:40.072Z,56.60
2023-03-05T15:02:17.550Z,56.60
2023-03-05T15:03:50.704Z,56.70
2023-03-05T15:05:23.820Z,56.70
2023-03-05T15:06:56.972Z,56.70
2023-03-05T15:08:33.397Z,56.60
2023-03-05T15:10:08.625Z,56.40
2023-03-05T15:11:43.054Z,56.40
2023-03-05T15:13:17.599Z,56.40
2023-03-05T15:14:50.918Z,56.30
2023-03-05T15:16:24.691Z,56.40
2023-03-05T15:17:57.797Z,56.60
2023-03-05T15:19:30.989Z,56.70
2023-03-05T15:21:04.500Z,56.60
2023-03-05T15:22:38.414Z,56.60
2023-03-05T15:24:14.645Z,57.10
2023-03-05T15:25:47.772Z,56.60
2023-03-05T15:27:22.313Z,56.60
2023-03-05T15:30:32.223Z,56.30
2023-03-05T15:32:06.177Z,56.30
2023-03-05T15:33:41.637Z,56.20
2023-03-05T15:35:14.950Z,56.30
2023-03-05T15:36:49.098Z,56.30
2023-03-05T15:38:22.432Z,56.30
2023-03-05T15:39:55.815Z,56.60
2023-03-05T15:41:29.254Z,56.60
2023-03-05T15:43:03.894Z,56.60
2023-03-05T15:44:39.137Z,56.50
2023-03-05T15:46:12.519Z,56.50
2023-03-05T15:47:45.899Z,56.60
2023-03-05T15:49:18.616Z,56.60
2023-03-05T15:50:51.784Z,56.70
2023-03-05T15:52:25.032Z,56.80
2023-03-05T15:53:58.080Z,56.80
2023-03-05T15:55:31.136Z,56.70
2023-03-05T15:57:07.779Z,56.60
2023-03-05T15:58:43.250Z,56.60
2023-03-05T16:00:21.079Z,56.60
2023-03-05T16:01:55.373Z,56.50
2023-03-05T16:03:28.554Z,56.50
2023-03-05T16:05:01.753Z,56.50
2023-03-05T16:06:35.799Z,56.50
2023-03-05T16:08:09.902Z,56.50
2023-03-05T16:09:49.140Z,56.50
2023-03-05T16:11:23.166Z,56.60
2023-03-05T16:13:02.286Z,56.60
2023-03-05T16:14:39.769Z,56.60
2023-03-05T16:16:14.020Z,56.80
2023-03-05T16:17:53.230Z,56.80
2023-03-05T16:19:28.898Z,56.60
2023-03-05T16:21:02.180Z,56.60
2023-03-05T16:22:35.520Z,56.50
2023-03-05T16:24:08.770Z,56.60
2023-03-05T16:25:42.018Z,56.60
2023-03-05T16:27:15.321Z,56.70
2023-03-05T16:28:48.421Z,56.60
2023-03-05T16:30:23.149Z,56.60
2023-03-05T16:31:56.440Z,56.50
2023-03-05T16:33:31.670Z,56.50
2023-03-05T16:35:05.579Z,56.50
2023-03-05T16:36:38.729Z,56.50
2023-03-05T16:38:11.922Z,57.00
2023-03-05T16:39:45.038Z,56.40
2023-03-05T16:41:22.027Z,57.10
2023-03-05T16:42:56.278Z,56.40
2023-03-05T16:44:29.445Z,56.50
2023-03-05T16:46:03.915Z,56.50
2023-03-05T16:47:37.979Z,56.50
2023-03-05T16:49:11.181Z,56.50
2023-03-05T16:50:44.681Z,56.40
2023-03-05T16:52:19.730Z,56.50
2023-03-05T16:53:55.755Z,56.50
2023-03-05T16:55:29.102Z,56.50
2023-03-05T16:57:02.229Z,56.50
2023-03-05T16:58:37.911Z,56.40
2023-03-05T17:00:13.096Z,56.30
2023-03-05T17:01:47.507Z,56.30
2023-03-05T17:03:20.757Z,56.30
2023-03-05T17:04:55.861Z,56.30
2023-03-05T17:06:31.979Z,56.30
2023-03-05T17:08:06.143Z,56.50
2023-03-05T17:09:39.882Z,56.60
2023-03-05T17:11:13.960Z,56.90
2023-03-05T17:12:48.239Z,57.10
2023-03-05T17:14:21.600Z,57.30
2023-03-05T17:15:57.013Z,57.60
2023-03-05T17:17:32.436Z,57.70
2023-03-05T17:19:05.768Z,57.80
2023-03-05T17:20:38.889Z,57.90
2023-03-05T17:22:12.831Z,58.00
2023-03-05T17:23:45.940Z,58.10
2023-03-05T17:25:19.808Z,58.10
2023-03-05T17:26:53.057Z,58.10
2023-03-05T17:28:26.620Z,58.10
2023-03-05T17:29:59.693Z,58.20
2023-03-05T17:31:33.324Z,58.20
2023-03-05T17:33:08.105Z,58.30
2023-03-05T17:34:41.494Z,58.20
2023-03-05T17:36:17.308Z,58.40
2023-03-05T17:37:55.112Z,58.50
2023-03-05T17:39:28.366Z,58.50
2023-03-05T17:41:01.612Z,58.50
2023-03-05T17:42:34.701Z,58.50
2023-03-05T17:44:07.837Z,58.50
2023-03-05T17:45:41.220Z,58.50
2023-03-05T17:47:14.821Z,58.50
2023-03-05T17:48:49.502Z,58.50
2023-03-05T17:50:22.823Z,58.40
2023-03-05T17:51:56.544Z,58.50
2023-03-05T17:53:29.773Z,58.50
2023-03-05T17:55:08.727Z,58.40
2023-03-05T17:56:41.892Z,58.30
2023-03-05T17:58:15.323Z,58.10
2023-03-05T17:59:49.176Z,58.10
2023-03-05T18:01:28.389Z,58.30
2023-03-05T18:03:02.958Z,58.30
2023-03-05T18:04:37.476Z,58.30
2023-03-05T18:06:10.551Z,58.20
2023-03-05T18:07:43.673Z,58.20
2023-03-05T18:09:16.766Z,58.20
2023-03-05T18:10:50.274Z,58.20
2023-03-05T18:12:23.675Z,58.30
2023-03-05T18:13:56.883Z,58.40
2023-03-05T18:15:31.322Z,58.50
2023-03-05T18:17:04.711Z,58.60
2023-03-05T18:18:38.241Z,58.70
2023-03-05T18:20:28.513Z,58.60
2023-03-05T18:22:01.758Z,58.80
2023-03-05T18:23:35.077Z,58.60
2023-03-05T18:25:11.474Z,58.50
2023-03-05T18:26:45.104Z,58.50
2023-03-05T18:28:19.846Z,58.60
2023-03-05T18:29:54.163Z,58.60
2023-03-05T18:31:27.349Z,58.80
2023-03-05T18:33:01.230Z,58.80
2023-03-05T18:34:34.887Z,58.60
2023-03-05T18:36:10.960Z,58.70
2023-03-05T18:37:44.277Z,58.80
2023-03-05T18:39:18.597Z,58.80
2023-03-05T18:40:52.836Z,58.90
2023-03-05T18:42:25.934Z,58.80
2023-03-05T18:43:59.759Z,58.90
2023-03-05T18:45:34.130Z,59.00
2023-03-05T18:47:07.604Z,58.90
2023-03-05T18:48:40.878Z,58.90
2023-03-05T18:50:18.471Z,59.00
2023-03-05T18:51:53.142Z,59.00
2023-03-05T18:53:26.325Z,59.00
2023-03-05T18:54:59.644Z,58.90
2023-03-05T18:56:32.736Z,59.60
2023-03-05T18:58:06.087Z,58.90
2023-03-05T18:59:39.244Z,59.00
2023-03-05T19:01:12.416Z,59.00
2023-03-05T19:02:45.825Z,59.00
2023-03-05T19:04:18.949Z,58.90
2023-03-05T19:05:52.987Z,59.00
2023-03-05T19:07:27.633Z,58.90
2023-03-05T19:09:05.323Z,58.90
2023-03-05T19:10:38.905Z,59.00
2023-03-05T19:12:12.066Z,59.00
2023-03-05T19:13:48.967Z,59.00
2023-03-05T19:15:22.935Z,59.10
2023-03-05T19:16:56.192Z,59.10
2023-03-05T19:18:33.307Z,59.10
2023-03-05T19:20:08.354Z,59.10
2023-03-05T19:21:42.563Z,59.10
2023-03-05T19:23:17.103Z,59.10
2023-03-05T19:24:50.354Z,59.10
2023-03-05T19:26:23.966Z,59.10
2023-03-05T19:27:57.539Z,59.20
2023-03-05T19:29:32.634Z,59.20
2023-03-05T19:31:06.164Z,59.20
2023-03-05T19:32:39.984Z,59.40
2023-03-05T19:34:13.116Z,59.30
2023-03-05T19:35:46.261Z,59.20
2023-03-05T19:37:19.369Z,59.20
2023-03-05T19:38:53.862Z,59.30
2023-03-05T19:40:27.080Z,59.30
2023-03-05T19:42:00.368Z,59.40
2023-03-05T19:43:33.937Z,59.50
2023-03-05T19:45:08.845Z,59.50
2023-03-05T19:46:43.409Z,59.50
2023-03-05T19:48:16.822Z,59.60
2023-03-05T19:49:50.115Z,59.40
2023-03-05T19:51:26.725Z,59.40
2023-03-05T19:52:59.880Z,59.40
2023-03-05T19:54:34.797Z,59.40
2023-03-05T19:56:09.565Z,59.60
2023-03-05T19:57:42.838Z,59.70
2023-03-05T19:59:17.824Z,59.70
2023-03-05T20:00:50.961Z,59.80
2023-03-05T20:02:24.189Z,59.70
2023-03-05T20:04:00.124Z,59.80
2023-03-05T20:05:33.373Z,59.80
2023-03-05T20:07:07.066Z,59.80
2023-03-05T20:08:40.540Z,60.50
2023-03-05T20:10:15.224Z,59.80
2023-03-05T20:11:48.807Z,59.70
2023-03-05T20:13:21.951Z,59.80
2023-03-05T20:14:55.073Z,59.70
2023-03-05T20:16:31.334Z,59.70
2023-03-05T20:18:04.658Z,59.70
2023-03-05T20:19:37.959Z,59.80
2023-03-05T20:21:11.216Z,59.70
2023-03-05T20:22:44.392Z,59.80
2023-03-05T20:24:20.243Z,59.90
2023-03-05T20:25:55.281Z,60.00
2023-03-05T20:27:28.294Z,60.00
2023-03-05T20:29:01.718Z,60.20
2023-03-05T20:30:35.001Z,59.90
2023-03-05T20:32:08.140Z,59.90
2023-03-05T20:33:41.390Z,59.90
2023-03-05T20:35:17.878Z,59.90
2023-03-05T20:36:51.121Z,60.00
2023-03-05T20:38:25.990Z,60.10